createdAt,value
2018-02-09T00:00:44.534Z,64.90
2018-02-09T00:03:13.690Z,63.00
2018-02-09T00:05:42.763Z,65.97
2018-02-09T00:08:11.890Z,63.42
2018-02-09T00:10:40.974Z,67.35
2018-02-09T00:13:10.031Z,59.20
2018-02-09T00:15:39.094Z,66.32
2018-02-09T00:18:08.189Z,62.28
2018-02-09T00:20:38.042Z,65.32
2018-02-09T00:23:07.094Z,64.65
2018-02-09T00:25:36.210Z,57.80
2018-02-09T00:28:06.038Z,65.65
2018-02-09T00:30:35.194Z,55.38
2018-02-09T00:33:04.278Z,68.20
2018-02-09T00:35:34.133Z,64.82
2018-02-09T00:38:03.219Z,65.93
2018-02-09T00:40:33.062Z,64.93
2018-02-09T00:43:02.169Z,67.15
2018-02-09T00:45:31.230Z,68.70
2018-02-09T00:48:00.393Z,63.30
2018-02-09T00:50:29.486Z,61.75
2018-02-09T00:52:59.310Z,66.43
2018-02-09T00:55:29.133Z,65.85
2018-02-09T00:57:58.213Z,65.97
2018-02-09T01:00:27.301Z,67.75
2018-02-09T01:02:56.425Z,67.57
2018-02-09T01:05:25.489Z,66.15
2018-02-09T01:07:55.313Z,58.85
2018-02-09T01:10:25.157Z,63.47
2018-02-09T01:12:54.250Z,56.88
2018-02-09T01:15:24.093Z,64.22
2018-02-09T01:17:53.189Z,66.00
2018-02-09T01:20:23.045Z,58.50
2018-02-09T01:22:52.149Z,64.62
2018-02-09T01:25:21.341Z,64.95
2018-02-09T01:27:51.170Z,67.40
2018-02-09T01:30:21.066Z,68.80
2018-02-09T01:32:50.126Z,66.07
2018-02-09T01:35:19.218Z,63.90
2018-02-09T01:37:49.039Z,67.35
2018-02-09T01:40:18.937Z,74.53
2018-02-09T01:42:48.041Z,59.45
2018-02-09T01:45:17.114Z,60.10
2018-02-09T01:47:46.214Z,55.85
2018-02-09T01:50:17.258Z,58.22
2018-02-09T01:52:47.102Z,62.72
2018-02-09T01:55:16.208Z,62.28
2018-02-09T01:57:45.291Z,64.90
2018-02-09T02:00:15.150Z,63.25
2018-02-09T02:02:44.311Z,58.53
2018-02-09T02:05:13.393Z,65.40
2018-02-09T02:07:42.492Z,56.13
2018-02-09T02:10:11.586Z,54.08
2018-02-09T02:12:40.717Z,57.62
2018-02-09T02:15:09.802Z,62.17
2018-02-09T02:17:39.650Z,59.42
2018-02-09T02:20:08.857Z,64.30
2018-02-09T02:22:37.914Z,57.80
2018-02-09T02:25:07.022Z,60.80
2018-02-09T02:27:36.081Z,55.50
2018-02-09T02:30:05.173Z,68.07
2018-02-09T02:32:35.015Z,59.03
2018-02-09T02:35:04.126Z,58.45
2018-02-09T02:37:33.209Z,60.25
2018-02-09T02:40:03.121Z,61.58
2018-02-09T02:42:33.713Z,60.65
2018-02-09T02:45:02.813Z,63.47
2018-02-09T02:47:32.657Z,61.13
2018-02-09T02:50:01.789Z,53.28
2018-02-09T02:52:30.872Z,66.45
2018-02-09T02:54:59.989Z,66.07
2018-02-09T02:57:29.046Z,63.03
2018-02-09T02:59:58.145Z,58.25
2018-02-09T03:02:27.326Z,56.90
2018-02-09T03:04:56.382Z,65.15
2018-02-09T03:07:25.486Z,60.92
2018-02-09T03:09:54.565Z,59.45
2018-02-09T03:12:23.634Z,65.43
2018-02-09T03:14:53.481Z,53.87
2018-02-09T03:17:22.565Z,64.18
2018-02-09T03:19:52.405Z,57.25
2018-02-09T03:22:21.526Z,60.30
2018-02-09T03:24:50.582Z,65.15
2018-02-09T03:27:19.674Z,58.60
2018-02-09T03:29:48.782Z,54.75
2018-02-09T03:32:17.857Z,58.65
2018-02-09T03:34:47.749Z,56.67
2018-02-09T03:37:16.866Z,53.95
2018-02-09T03:39:45.974Z,62.53
2018-02-09T03:42:15.125Z,56.37
2018-02-09T03:44:44.204Z,59.78
2018-02-09T03:47:14.026Z,48.78
2018-02-09T03:49:43.874Z,59.10
2018-02-09T03:52:13.093Z,62.62
2018-02-09T03:54:42.197Z,61.70
2018-02-09T03:57:12.021Z,63.08
2018-02-09T03:59:41.902Z,68.22
2018-02-09T04:02:10.959Z,63.40
2018-02-09T04:04:40.813Z,69.03
2018-02-09T04:07:09.889Z,59.63
2018-02-09T04:09:39.877Z,60.55
2018-02-09T04:12:08.983Z,67.43
2018-02-09T04:14:38.046Z,52.92
2018-02-09T04:17:07.949Z,68.10
2018-02-09T04:19:38.536Z,57.00
2018-02-09T04:22:07.673Z,63.28
2018-02-09T04:24:36.734Z,62.70
2018-02-09T04:27:06.622Z,59.05
2018-02-09T04:29:35.705Z,63.78
2018-02-09T04:32:04.803Z,56.75
2018-02-09T06:07:14.929Z,114.70
2018-02-09T06:09:43.994Z,114.25
2018-02-09T06:12:13.110Z,96.95
2018-02-09T06:14:42.218Z,80.62
2018-02-09T06:17:11.338Z,90.03
2018-02-09T06:19:40.410Z,76.45
2018-02-09T06:22:09.506Z,89.22
2018-02-09T06:24:38.662Z,83.45
2018-02-09T06:27:07.724Z,92.00
2018-02-09T06:29:36.865Z,82.68
2018-02-09T06:32:05.950Z,80.82
2018-02-09T06:34:35.014Z,80.72
2018-02-09T06:37:04.164Z,83.50
2018-02-09T06:39:33.270Z,87.65
2018-02-09T06:42:02.424Z,94.05
2018-02-09T06:44:31.509Z,91.10
2018-02-09T06:47:00.605Z,90.70
2018-02-09T06:49:29.685Z,91.75
2018-02-09T06:51:59.557Z,93.30
2018-02-09T06:54:28.685Z,92.03
2018-02-09T06:56:57.813Z,96.60
2018-02-09T06:59:26.930Z,94.07
2018-02-09T07:01:56.065Z,95.22
2018-02-09T07:04:25.912Z,90.75
2018-02-09T07:06:54.982Z,106.50
2018-02-09T07:09:24.090Z,114.30
2018-02-09T07:11:53.945Z,110.50
2018-02-09T07:14:23.801Z,91.53
2018-02-09T07:16:52.945Z,110.25
2018-02-09T07:19:22.014Z,100.53
2018-02-09T07:21:51.105Z,96.37
2018-02-09T07:24:20.949Z,96.85
2018-02-09T07:26:50.085Z,94.72
2018-02-09T07:29:19.165Z,97.20
2018-02-09T07:31:48.249Z,107.85
2018-02-09T07:34:17.317Z,105.22
2018-02-09T07:36:46.461Z,92.95
2018-02-09T07:39:15.525Z,87.37
2018-02-09T07:41:44.634Z,89.30
2018-02-09T07:44:13.741Z,98.03
2018-02-09T07:46:42.822Z,85.10
2018-02-09T07:49:11.910Z,98.82
2018-02-09T07:51:40.989Z,98.93
2018-02-09T07:54:10.186Z,100.12
2018-02-09T07:56:39.270Z,92.12
2018-02-09T07:59:08.382Z,92.62
2018-02-09T08:01:37.437Z,96.87
2018-02-09T08:04:06.565Z,91.95
2018-02-09T08:06:35.630Z,92.70
2018-02-09T08:09:04.718Z,98.28
2018-02-09T08:11:34.605Z,91.45
2018-02-09T08:14:03.666Z,92.10
2018-02-09T08:16:32.805Z,105.00
2018-02-09T08:19:01.929Z,87.68
2018-02-09T08:21:31.757Z,107.32
2018-02-09T08:24:00.842Z,204.70
2018-02-09T08:26:29.902Z,186.23
2018-02-09T08:28:59.837Z,87.53
2018-02-09T08:31:28.939Z,91.35
2018-02-09T08:33:58.069Z,87.75
2018-02-09T08:36:27.900Z,84.90
2018-02-09T08:38:56.989Z,81.05
2018-02-09T08:41:26.882Z,87.45
2018-02-09T08:43:55.972Z,98.80
2018-02-09T08:46:25.141Z,94.13
2018-02-09T08:48:55.957Z,87.93
2018-02-09T08:51:25.069Z,100.15
2018-02-09T08:53:54.902Z,93.50
2018-02-09T08:56:24.009Z,95.60
2018-02-09T08:58:53.067Z,92.95
2018-02-09T09:01:22.942Z,104.90
2018-02-09T09:03:52.025Z,105.53
2018-02-09T09:06:21.177Z,90.35
2018-02-09T09:08:50.253Z,107.82
2018-02-09T09:11:19.342Z,106.72
2018-02-09T09:13:48.436Z,102.60
2018-02-09T09:16:17.521Z,103.78
2018-02-09T09:18:46.610Z,96.30
2018-02-09T09:21:15.678Z,98.20
2018-02-09T09:23:44.802Z,115.00
2018-02-09T09:26:13.866Z,101.72
2018-02-09T09:28:42.980Z,99.75
2018-02-09T09:31:12.113Z,122.07
2018-02-09T09:33:42.010Z,105.40
2018-02-09T09:36:11.114Z,98.03
2018-02-09T09:38:40.221Z,107.82
2018-02-09T09:41:09.281Z,111.55
2018-02-09T09:43:38.446Z,109.97
2018-02-09T09:46:07.510Z,103.93
2018-02-09T09:48:36.618Z,101.57
2018-02-09T09:51:05.677Z,96.85
2018-02-09T09:53:34.781Z,98.78
2018-02-09T09:56:03.850Z,87.43
2018-02-09T09:58:32.898Z,90.25
2018-02-09T10:01:02.031Z,86.30
2018-02-09T10:03:31.074Z,87.85
2018-02-09T10:06:00.157Z,88.50
2018-02-09T10:08:29.225Z,95.75
2018-02-09T10:10:58.365Z,84.43
2018-02-09T10:13:28.942Z,93.12
2018-02-09T10:15:58.806Z,87.20
2018-02-09T10:18:27.858Z,94.57
2018-02-09T10:20:56.966Z,93.15
2018-02-09T10:23:26.035Z,98.87
2018-02-09T10:25:55.159Z,95.40
2018-02-09T10:28:25.135Z,101.57
2018-02-09T10:30:55.021Z,95.65
2018-02-09T10:33:24.070Z,87.50
2018-02-09T10:35:53.878Z,80.80
2018-02-09T10:38:23.014Z,82.90
2018-02-09T10:40:52.830Z,72.43
2018-02-09T10:43:22.705Z,81.45
2018-02-09T10:45:51.749Z,77.80
2018-02-09T10:48:20.849Z,70.18
2018-02-09T10:50:49.917Z,69.75
2018-02-09T10:53:18.994Z,88.10
2018-02-09T10:55:48.825Z,85.90
2018-02-09T10:58:17.981Z,87.85
2018-02-09T11:00:52.530Z,87.05
2018-02-09T11:03:22.237Z,86.10
2018-02-09T11:05:51.298Z,81.43
2018-02-09T11:08:20.399Z,80.30
2018-02-09T11:10:49.469Z,79.65
2018-02-09T11:13:18.638Z,87.75
2018-02-09T11:15:48.478Z,83.03
2018-02-09T11:18:18.313Z,91.30
2018-02-09T11:20:47.374Z,85.47
2018-02-09T11:23:16.519Z,74.15
2018-02-09T11:25:46.318Z,75.80
2018-02-09T11:28:15.418Z,74.72
2018-02-09T11:30:44.486Z,65.50
2018-02-09T11:33:13.626Z,64.78
2018-02-09T11:35:42.698Z,74.35
2018-02-09T11:38:11.825Z,69.78
2018-02-09T11:40:40.883Z,78.85
2018-02-09T11:43:10.021Z,75.87
2018-02-09T11:45:39.862Z,70.25
2018-02-09T11:48:08.937Z,73.65
2018-02-09T11:50:38.066Z,70.62
2018-02-09T11:53:07.141Z,66.53
2018-02-09T11:55:36.217Z,72.22
2018-02-09T11:58:05.286Z,72.60
2018-02-09T12:00:35.167Z,67.57
2018-02-09T12:03:04.218Z,68.70
2018-02-09T12:05:33.301Z,73.43
2018-02-09T12:08:02.348Z,77.25
2018-02-09T12:10:32.161Z,75.18
2018-02-09T12:13:01.226Z,78.22
2018-02-09T12:15:30.309Z,72.45
2018-02-09T12:17:59.354Z,72.25
2018-02-09T12:20:28.408Z,83.40
2018-02-09T12:22:58.270Z,82.75
2018-02-09T12:25:27.313Z,81.37
2018-02-09T12:27:56.469Z,74.78
2018-02-09T12:30:25.514Z,82.05
2018-02-09T12:32:54.615Z,81.75
2018-02-09T12:35:23.685Z,75.20
2018-02-09T12:37:53.529Z,77.82
2018-02-09T12:40:22.574Z,69.65
2018-02-09T12:42:51.701Z,71.18
2018-02-09T12:45:20.759Z,74.95
2018-02-09T12:47:49.803Z,72.03
2018-02-09T12:50:18.883Z,72.82
2018-02-09T12:52:47.930Z,72.85
2018-02-09T12:55:17.054Z,73.78
2018-02-09T12:57:46.126Z,81.97
2018-02-09T13:00:15.197Z,73.80
2018-02-09T13:02:45.070Z,77.00
2018-02-09T13:05:14.118Z,73.97
2018-02-09T13:07:43.246Z,73.30
2018-02-09T13:10:12.345Z,72.85
2018-02-09T13:12:59.453Z,79.60
2018-02-09T13:15:28.525Z,75.03
2018-02-09T13:17:57.638Z,72.75
2018-02-09T13:20:26.738Z,76.85
2018-02-09T13:26:10.214Z,72.72
2018-02-09T13:28:58.113Z,78.40
2018-02-09T13:31:27.187Z,75.12
2018-02-09T13:33:56.285Z,76.78
2018-02-09T13:39:39.462Z,79.18
2018-02-09T13:42:09.389Z,94.22
2018-02-09T13:44:39.202Z,82.03
2018-02-09T13:47:08.278Z,82.62
2018-02-09T13:49:37.350Z,83.20
2018-02-09T13:52:06.446Z,79.80
2018-02-09T13:54:36.258Z,77.30
2018-02-09T13:57:05.359Z,80.43
2018-02-09T13:59:34.570Z,78.25
2018-02-09T14:02:03.670Z,87.78
2018-02-09T14:04:32.870Z,87.78
2018-02-09T14:07:01.912Z,77.32
2018-02-09T14:09:30.981Z,88.82
2018-02-09T14:12:00.110Z,95.55
2018-02-09T14:14:29.220Z,97.00
2018-02-09T14:16:58.305Z,101.10
2018-02-09T14:19:27.437Z,98.32
2018-02-09T14:21:56.510Z,94.00
2018-02-09T14:24:25.605Z,91.55
2018-02-09T14:26:54.745Z,95.32
2018-02-09T14:29:23.797Z,101.60
2018-02-09T14:31:52.901Z,87.65
2018-02-09T14:34:21.969Z,78.62
2018-02-09T14:36:51.086Z,86.40
2018-02-09T14:39:20.140Z,82.72
2018-02-09T14:41:49.245Z,95.12
2018-02-09T14:44:19.106Z,96.90
2018-02-09T14:46:48.158Z,91.87
2018-02-09T14:49:17.230Z,85.57
2018-02-09T14:51:46.301Z,84.95
2018-02-09T14:54:16.194Z,83.20
2018-02-09T14:56:45.265Z,89.15
2018-02-09T14:59:14.342Z,86.37
2018-02-09T15:01:44.894Z,96.40
2018-02-09T15:04:13.979Z,104.30
2018-02-09T15:06:43.045Z,96.15
2018-02-09T15:09:12.118Z,96.87
2018-02-09T15:11:41.306Z,100.97
2018-02-09T15:14:10.398Z,99.97
2018-02-09T15:16:39.494Z,100.87
2018-02-09T15:19:08.545Z,98.85
2018-02-09T15:21:37.622Z,100.97
2018-02-09T15:24:06.693Z,103.18
2018-02-09T15:26:36.590Z,110.68
2018-02-09T15:29:05.638Z,97.95
2018-02-09T15:31:35.526Z,94.13
2018-02-09T15:34:04.593Z,102.80
2018-02-09T15:36:33.686Z,102.28
2018-02-09T15:39:03.515Z,99.75
2018-02-09T15:41:33.448Z,95.45
2018-02-09T15:44:02.539Z,93.70
2018-02-09T15:46:32.354Z,100.50
2018-02-09T15:49:01.443Z,103.93
2018-02-09T15:51:30.590Z,103.43
2018-02-09T15:54:00.417Z,104.32
2018-02-09T15:56:30.278Z,99.43
2018-02-09T15:58:59.381Z,97.45
2018-02-09T16:01:28.490Z,97.60
2018-02-09T16:03:58.353Z,99.82
2018-02-09T16:06:27.463Z,101.32
2018-02-09T16:08:56.585Z,100.47
2018-02-09T16:11:25.650Z,97.93
2018-02-09T16:13:54.762Z,103.87
2018-02-09T16:16:23.856Z,104.85
2018-02-09T16:18:52.960Z,114.30
2018-02-09T16:21:22.081Z,108.32
2018-02-09T16:23:51.196Z,103.62
2018-02-09T16:26:20.256Z,98.10
2018-02-09T16:28:49.529Z,102.82
2018-02-09T16:31:18.589Z,101.62
2018-02-09T16:33:48.449Z,106.97
2018-02-09T16:36:17.514Z,104.43
2018-02-09T16:38:46.629Z,112.18
2018-02-09T16:41:15.718Z,96.40
2018-02-09T16:43:44.861Z,116.00
2018-02-09T16:46:14.793Z,108.00
2018-02-09T16:48:44.658Z,108.55
2018-02-09T16:51:13.762Z,109.12
2018-02-09T16:53:42.885Z,111.80
2018-02-09T16:56:11.974Z,110.72
2018-02-09T16:58:41.065Z,112.75
2018-02-09T17:01:10.933Z,110.57
2018-02-09T17:03:40.062Z,107.37
2018-02-09T17:06:09.173Z,119.05
2018-02-09T17:08:38.239Z,114.75
2018-02-09T17:11:08.107Z,132.65
2018-02-09T17:13:37.170Z,120.75
2018-02-09T17:16:07.051Z,117.82
2018-02-09T17:18:36.118Z,114.22
2018-02-09T17:21:05.241Z,112.95
2018-02-09T17:23:34.338Z,114.57
2018-02-09T17:26:03.464Z,121.62
2018-02-09T17:28:32.553Z,116.57
2018-02-09T17:31:02.402Z,111.70
2018-02-09T17:33:31.493Z,111.85
2018-02-09T17:36:00.565Z,108.65
2018-02-09T17:38:29.694Z,112.62
2018-02-09T17:40:59.558Z,110.53
2018-02-09T17:43:28.737Z,111.93
2018-02-09T17:45:58.590Z,115.15
2018-02-09T17:48:27.683Z,121.07
2018-02-09T17:50:57.514Z,111.62
2018-02-09T17:53:27.377Z,111.80
2018-02-09T17:55:56.465Z,105.53
2018-02-09T17:58:25.638Z,115.95
2018-02-09T18:00:54.710Z,106.47
2018-02-09T18:03:24.593Z,110.22
2018-02-09T18:05:54.430Z,100.62
2018-02-09T18:08:24.314Z,127.75
2018-02-09T18:10:53.381Z,141.05
2018-02-09T18:13:22.721Z,142.73
2018-02-09T18:15:51.825Z,147.98
2018-02-09T18:18:20.990Z,129.15
2018-02-09T18:20:50.841Z,131.52
2018-02-09T18:23:19.906Z,133.27
2018-02-09T18:25:48.993Z,128.62
2018-02-09T18:28:18.097Z,129.90
2018-02-09T18:30:47.170Z,129.43
2018-02-09T18:33:17.046Z,115.07
2018-02-09T18:35:46.190Z,122.78
2018-02-09T18:38:15.258Z,134.00
2018-02-09T18:40:44.357Z,146.95
2018-02-09T18:43:13.422Z,138.02
2018-02-09T18:45:42.489Z,124.95
2018-02-09T18:48:11.581Z,125.87
2018-02-09T18:50:40.711Z,133.82
2018-02-09T18:53:09.800Z,125.97
2018-02-09T18:55:38.946Z,139.30
2018-02-09T18:58:08.035Z,144.87
2018-02-09T19:00:37.153Z,133.00
2018-02-09T19:03:06.242Z,134.32
2018-02-09T19:05:35.358Z,129.70
2018-02-09T19:08:04.423Z,125.43
2018-02-09T19:10:33.518Z,128.82
2018-02-09T19:13:02.582Z,129.15
2018-02-09T19:15:31.793Z,122.87
2018-02-09T19:18:00.865Z,139.57
2018-02-09T19:20:29.958Z,140.25
2018-02-09T19:22:59.045Z,136.52
2018-02-09T19:25:28.134Z,127.57
2018-02-09T19:27:57.234Z,120.70
2018-02-09T19:30:26.353Z,136.88
2018-02-09T19:32:55.558Z,147.07
2018-02-09T19:35:24.626Z,139.43
2018-02-09T19:37:53.717Z,144.80
2018-02-09T19:40:22.809Z,140.52
2018-02-09T19:42:51.929Z,150.98
2018-02-09T19:45:21.763Z,142.98
2018-02-09T19:47:50.905Z,141.98
2018-02-09T19:50:19.998Z,134.23
2018-02-09T19:52:49.182Z,149.68
2018-02-09T19:55:18.309Z,146.07
2018-02-09T19:57:47.398Z,130.55
2018-02-09T20:00:16.541Z,132.27
2018-02-09T20:02:45.625Z,129.40
2018-02-09T20:05:14.768Z,123.78
2018-02-09T20:07:43.878Z,119.93
2018-02-09T20:10:13.022Z,117.87
2018-02-09T20:12:42.909Z,116.90
2018-02-09T20:15:11.993Z,110.22
2018-02-09T20:17:41.090Z,111.32
2018-02-09T20:20:10.147Z,118.15
2018-02-09T20:22:39.258Z,110.10
2018-02-09T20:25:08.338Z,117.13
2018-02-09T20:27:37.477Z,106.60
2018-02-09T20:30:06.575Z,110.60
2018-02-09T20:32:35.714Z,114.10
2018-02-09T20:35:04.839Z,112.85
2018-02-09T20:37:34.865Z,111.07
2018-02-09T20:40:04.715Z,122.53
2018-02-09T20:42:33.810Z,122.22
2018-02-09T20:45:03.537Z,114.65
2018-02-09T20:47:33.465Z,112.53
2018-02-09T20:50:02.566Z,124.78
2018-02-09T20:52:32.441Z,123.53
2018-02-09T20:55:01.513Z,126.90
2018-02-09T20:57:31.393Z,122.40
2018-02-09T21:00:00.458Z,117.03
2018-02-09T21:02:30.354Z,121.43
2018-02-09T21:04:59.450Z,119.72
2018-02-09T21:07:28.532Z,126.22
2018-02-09T21:09:57.655Z,112.20
2018-02-09T21:12:26.782Z,109.45
2018-02-09T21:14:55.866Z,124.15
2018-02-09T21:17:24.930Z,120.78
2018-02-09T21:19:54.085Z,118.68
2018-02-09T21:22:23.185Z,115.85
2018-02-09T21:24:52.302Z,119.18
2018-02-09T21:27:21.418Z,128.65
2018-02-09T21:29:50.574Z,122.93
2018-02-09T21:32:19.663Z,127.93
2018-02-09T21:34:48.765Z,119.95
2018-02-09T21:37:17.828Z,117.55
2018-02-09T21:39:47.688Z,124.28
2018-02-09T21:42:16.809Z,121.22
2018-02-09T21:44:45.899Z,129.43
2018-02-09T21:47:15.021Z,125.40
2018-02-09T21:49:44.109Z,129.25
2018-02-09T21:52:13.198Z,129.98
2018-02-09T21:54:42.281Z,119.25
2018-02-09T21:57:11.345Z,127.18
2018-02-09T21:59:40.557Z,119.50
2018-02-09T22:02:10.419Z,131.00
2018-02-09T22:04:39.557Z,129.00
2018-02-09T22:07:08.654Z,128.93
2018-02-09T22:09:37.720Z,126.32
2018-02-09T22:12:06.806Z,122.90
2018-02-09T22:14:36.634Z,121.00
2018-02-09T22:17:06.605Z,133.23
2018-02-09T22:19:35.666Z,123.03
2018-02-09T22:22:04.810Z,130.80
2018-02-09T22:24:33.898Z,118.97
2018-02-09T22:27:03.773Z,128.93
2018-02-09T22:29:32.884Z,116.22
2018-02-09T22:32:01.942Z,133.12
2018-02-09T22:34:31.901Z,125.60
2018-02-09T22:37:01.013Z,146.40
2018-02-09T22:39:30.074Z,127.90
2018-02-09T22:41:59.995Z,124.87
2018-02-09T22:44:29.849Z,149.10
2018-02-09T22:46:59.725Z,133.30
2018-02-09T22:49:28.789Z,125.80
2018-02-09T22:51:58.761Z,131.23
2018-02-09T22:54:27.853Z,124.95
2018-02-09T22:56:56.942Z,132.68
2018-02-09T22:59:26.761Z,137.10
2018-02-09T23:01:56.649Z,133.05
2018-02-09T23:04:25.737Z,136.93
2018-02-09T23:06:54.853Z,136.75
2018-02-09T23:09:23.982Z,132.90
2018-02-09T23:11:53.137Z,150.62
2018-02-09T23:14:22.963Z,132.50
2018-02-09T23:16:52.077Z,137.25
2018-02-09T23:19:21.925Z,133.87
2018-02-09T23:21:51.221Z,141.73
2018-02-09T23:24:21.050Z,142.57
2018-02-09T23:26:50.910Z,132.57
2018-02-09T23:29:19.986Z,135.12
2018-02-09T23:31:49.894Z,144.52
2018-02-09T23:34:18.958Z,141.90
2018-02-09T23:36:48.113Z,127.72
2018-02-09T23:39:18.685Z,129.77
2018-02-09T23:41:48.573Z,141.40
2018-02-09T23:44:17.729Z,144.02
2018-02-09T23:46:46.852Z,137.02
2018-02-09T23:49:15.997Z,127.93
2018-02-09T23:51:45.065Z,134.00
2018-02-09T23:54:14.897Z,126.28
2018-02-09T23:56:44.778Z,134.30
2018-02-09T23:59:13.894Z,135.52
